Main page

Airports :

Alpine, Texas, United States

Alpine-Casparis Municipal Airport

latitude: 30-23-03N, longitude: 103-41-00W, elevation: 1376 m

Current weather observation

The report was made 29 minutes ago, at 09:15 UTC
Wind 4 kt from the West/Southwest
Temperature 10°C
Humidity 93%
Pressure 1017 hPa
Visibility: 16.1 km
Clear sky

METAR: KE38 300915Z AUTO 24004KT 10SM CLR 10/09 A3004 RMK AO2 T00950091

Time: 03:44 (09:44 UTC)

TAF: missing


Weather observations and forecasts of more than 4000 airports (METAR and TAF reports).

The available stations are represented by yellow and red dots on the map.

Hover mouse over dot to see the name of the station.

Then click to see weather observations and forecasts.

To change the map : click on the green buttons with a black cross to zoom in, on the green button with a dash to zoom out, or on the green arrows for adjacent maps.